sensor_id;sensor_type;location;lat;lon;timestamp;temperature;humidity
75471;HTU21D;64051;46.320;48.028;2022-10-17T00:02:01;7.50;63.50
75471;HTU21D;64051;46.320;48.028;2022-10-17T00:04:27;7.49;63.65
75471;HTU21D;64051;46.320;48.028;2022-10-17T00:06:53;7.49;63.84
75471;HTU21D;64051;46.320;48.028;2022-10-17T00:09:19;7.49;63.87
75471;HTU21D;64051;46.320;48.028;2022-10-17T00:11:45;7.50;63.86
75471;HTU21D;64051;46.320;48.028;2022-10-17T00:14:11;7.49;64.14
75471;HTU21D;64051;46.320;48.028;2022-10-17T00:16:37;7.49;64.15
75471;HTU21D;64051;46.320;48.028;2022-10-17T00:19:04;7.50;64.24
75471;HTU21D;64051;46.320;48.028;2022-10-17T00:21:31;7.52;64.15
75471;HTU21D;64051;46.320;48.028;2022-10-17T00:23:58;7.53;64.18
75471;HTU21D;64051;46.320;48.028;2022-10-17T00:26:25;7.48;64.19
75471;HTU21D;64051;46.320;48.028;2022-10-17T00:28:52;7.47;64.21
75471;HTU21D;64051;46.320;48.028;2022-10-17T00:31:19;7.47;64.40
75471;HTU21D;64051;46.320;48.028;2022-10-17T00:33:46;7.47;64.45
75471;HTU21D;64051;46.320;48.028;2022-10-17T00:36:17;7.47;64.59
75471;HTU21D;64051;46.320;48.028;2022-10-17T00:38:46;7.46;64.73
75471;HTU21D;64051;46.320;48.028;2022-10-17T00:41:14;7.46;64.61
75471;HTU21D;64051;46.320;48.028;2022-10-17T00:43:56;7.47;65.07
75471;HTU21D;64051;46.320;48.028;2022-10-17T00:46:24;7.48;64.82
75471;HTU21D;64051;46.320;48.028;2022-10-17T00:48:51;7.49;64.96
75471;HTU21D;64051;46.320;48.028;2022-10-17T00:51:21;7.50;65.13
75471;HTU21D;64051;46.320;48.028;2022-10-17T00:53:50;7.49;65.04
75471;HTU21D;64051;46.320;48.028;2022-10-17T00:56:18;7.50;64.95
75471;HTU21D;64051;46.320;48.028;2022-10-17T00:58:46;7.50;65.10
75471;HTU21D;64051;46.320;48.028;2022-10-17T01:01:13;7.54;65.09
75471;HTU21D;64051;46.320;48.028;2022-10-17T01:03:41;7.56;65.07
75471;HTU21D;64051;46.320;48.028;2022-10-17T01:06:07;7.58;65.14
75471;HTU21D;64051;46.320;48.028;2022-10-17T01:08:33;7.60;65.16
75471;HTU21D;64051;46.320;48.028;2022-10-17T01:11:20;7.63;65.38
75471;HTU21D;64051;46.320;48.028;2022-10-17T01:16:58;7.64;66.04
75471;HTU21D;64051;46.320;48.028;2022-10-17T01:22:53;7.68;65.56
75471;HTU21D;64051;46.320;48.028;2022-10-17T01:31:13;7.69;65.49
75471;HTU21D;64051;46.320;48.028;2022-10-17T01:34:09;7.70;65.80
75471;HTU21D;64051;46.320;48.028;2022-10-17T01:36:52;7.67;65.95
75471;HTU21D;64051;46.320;48.028;2022-10-17T01:39:45;7.67;65.98
75471;HTU21D;64051;46.320;48.028;2022-10-17T01:42:32;7.65;66.08
75471;HTU21D;64051;46.320;48.028;2022-10-17T01:45:16;7.64;66.01
75471;HTU21D;64051;46.320;48.028;2022-10-17T01:47:45;7.64;65.85
75471;HTU21D;64051;46.320;48.028;2022-10-17T01:50:17;7.64;65.90
75471;HTU21D;64051;46.320;48.028;2022-10-17T01:52:48;7.64;66.03
75471;HTU21D;64051;46.320;48.028;2022-10-17T01:55:29;7.64;66.10
75471;HTU21D;64051;46.320;48.028;2022-10-17T01:58:01;7.63;66.05
75471;HTU21D;64051;46.320;48.028;2022-10-17T02:00:29;7.60;65.98
75471;HTU21D;64051;46.320;48.028;2022-10-17T02:02:58;7.59;66.05
75471;HTU21D;64051;46.320;48.028;2022-10-17T02:05:35;7.57;66.12
75471;HTU21D;64051;46.320;48.028;2022-10-17T02:08:03;7.50;66.03
75471;HTU21D;64051;46.320;48.028;2022-10-17T02:10:44;7.46;66.24
75471;HTU21D;64051;46.320;48.028;2022-10-17T02:19:01;7.30;66.65
75471;HTU21D;64051;46.320;48.028;2022-10-17T02:21:38;7.25;66.54
75471;HTU21D;64051;46.320;48.028;2022-10-17T02:26:45;7.18;66.75
75471;HTU21D;64051;46.320;48.028;2022-10-17T02:29:15;7.13;66.66
75471;HTU21D;64051;46.320;48.028;2022-10-17T02:31:55;7.09;67.01
75471;HTU21D;64051;46.320;48.028;2022-10-17T02:34:49;7.02;67.55
75471;HTU21D;64051;46.320;48.028;2022-10-17T02:37:18;6.96;67.25
75471;HTU21D;64051;46.320;48.028;2022-10-17T02:39:47;6.97;67.21
75471;HTU21D;64051;46.320;48.028;2022-10-17T02:42:14;6.96;67.30
75471;HTU21D;64051;46.320;48.028;2022-10-17T02:44:42;6.96;67.25
75471;HTU21D;64051;46.320;48.028;2022-10-17T02:49:49;6.93;67.54
75471;HTU21D;64051;46.320;48.028;2022-10-17T02:52:37;6.89;67.75
75471;HTU21D;64051;46.320;48.028;2022-10-17T02:55:15;6.87;67.67
75471;HTU21D;64051;46.320;48.028;2022-10-17T02:57:51;6.86;67.72
75471;HTU21D;64051;46.320;48.028;2022-10-17T03:00:19;6.82;67.68
75471;HTU21D;64051;46.320;48.028;2022-10-17T03:02:49;6.80;67.85
75471;HTU21D;64051;46.320;48.028;2022-10-17T03:05:20;6.79;67.86
75471;HTU21D;64051;46.320;48.028;2022-10-17T03:07:46;6.73;67.76
75471;HTU21D;64051;46.320;48.028;2022-10-17T03:10:12;6.67;67.83
75471;HTU21D;64051;46.320;48.028;2022-10-17T03:12:38;6.64;68.01
75471;HTU21D;64051;46.320;48.028;2022-10-17T03:15:06;6.60;68.02
75471;HTU21D;64051;46.320;48.028;2022-10-17T03:17:33;6.55;68.07
75471;HTU21D;64051;46.320;48.028;2022-10-17T03:19:59;6.52;68.13
75471;HTU21D;64051;46.320;48.028;2022-10-17T03:22:25;6.49;68.35
75471;HTU21D;64051;46.320;48.028;2022-10-17T03:24:50;6.44;68.32
75471;HTU21D;64051;46.320;48.028;2022-10-17T03:27:16;6.41;68.37
75471;HTU21D;64051;46.320;48.028;2022-10-17T03:29:44;6.38;68.53
75471;HTU21D;64051;46.320;48.028;2022-10-17T03:32:12;6.36;68.53
75471;HTU21D;64051;46.320;48.028;2022-10-17T03:34:38;6.34;68.77
75471;HTU21D;64051;46.320;48.028;2022-10-17T03:37:07;6.33;68.77
75471;HTU21D;64051;46.320;48.028;2022-10-17T03:39:35;6.33;68.77
75471;HTU21D;64051;46.320;48.028;2022-10-17T03:42:05;6.33;68.78
75471;HTU21D;64051;46.320;48.028;2022-10-17T03:44:31;6.33;68.85
75471;HTU21D;64051;46.320;48.028;2022-10-17T03:46:57;6.33;68.94
75471;HTU21D;64051;46.320;48.028;2022-10-17T03:49:24;6.35;69.10
75471;HTU21D;64051;46.320;48.028;2022-10-17T03:51:50;6.38;69.10
75471;HTU21D;64051;46.320;48.028;2022-10-17T03:54:17;6.38;69.23
75471;HTU21D;64051;46.320;48.028;2022-10-17T03:56:43;6.39;69.35
75471;HTU21D;64051;46.320;48.028;2022-10-17T03:59:13;6.41;69.35
75471;HTU21D;64051;46.320;48.028;2022-10-17T04:01:41;6.44;69.71
75471;HTU21D;64051;46.320;48.028;2022-10-17T04:04:08;6.46;69.49
75471;HTU21D;64051;46.320;48.028;2022-10-17T04:06:36;6.51;69.65
75471;HTU21D;64051;46.320;48.028;2022-10-17T04:09:04;6.59;69.61
75471;HTU21D;64051;46.320;48.028;2022-10-17T04:11:39;6.66;69.47
75471;HTU21D;64051;46.320;48.028;2022-10-17T04:14:06;6.69;69.72
75471;HTU21D;64051;46.320;48.028;2022-10-17T04:16:32;6.72;69.53
75471;HTU21D;64051;46.320;48.028;2022-10-17T04:19:02;6.76;69.52
75471;HTU21D;64051;46.320;48.028;2022-10-17T04:21:33;6.79;69.52
75471;HTU21D;64051;46.320;48.028;2022-10-17T04:24:04;6.80;69.55
75471;HTU21D;64051;46.320;48.028;2022-10-17T04:26:41;6.79;69.61
75471;HTU21D;64051;46.320;48.028;2022-10-17T04:29:07;6.78;69.68
75471;HTU21D;64051;46.320;48.028;2022-10-17T04:31:37;6.81;69.86
75471;HTU21D;64051;46.320;48.028;2022-10-17T04:34:11;6.87;70.00
75471;HTU21D;64051;46.320;48.028;2022-10-17T04:36:39;6.98;70.10
75471;HTU21D;64051;46.320;48.028;2022-10-17T04:39:06;7.11;70.14
75471;HTU21D;64051;46.320;48.028;2022-10-17T04:41:32;7.24;70.07
75471;HTU21D;64051;46.320;48.028;2022-10-17T04:43:57;7.33;69.87
75471;HTU21D;64051;46.320;48.028;2022-10-17T04:46:25;7.34;69.58
75471;HTU21D;64051;46.320;48.028;2022-10-17T04:48:52;7.38;69.83
75471;HTU21D;64051;46.320;48.028;2022-10-17T04:51:19;7.43;69.90
75471;HTU21D;64051;46.320;48.028;2022-10-17T04:54:04;7.43;69.68
75471;HTU21D;64051;46.320;48.028;2022-10-17T04:56:31;7.44;69.68
75471;HTU21D;64051;46.320;48.028;2022-10-17T04:58:58;7.48;69.90
75471;HTU21D;64051;46.320;48.028;2022-10-17T05:01:25;7.55;70.07
75471;HTU21D;64051;46.320;48.028;2022-10-17T05:03:52;7.63;69.96
75471;HTU21D;64051;46.320;48.028;2022-10-17T05:06:23;7.71;69.90
75471;HTU21D;64051;46.320;48.028;2022-10-17T05:09:10;7.77;69.84
75471;HTU21D;64051;46.320;48.028;2022-10-17T05:11:36;7.83;69.87
75471;HTU21D;64051;46.320;48.028;2022-10-17T05:14:03;7.89;69.88
75471;HTU21D;64051;46.320;48.028;2022-10-17T05:16:31;7.96;69.82
75471;HTU21D;64051;46.320;48.028;2022-10-17T05:18:57;8.04;69.73
75471;HTU21D;64051;46.320;48.028;2022-10-17T05:21:28;8.14;69.69
75471;HTU21D;64051;46.320;48.028;2022-10-17T05:23:58;8.26;69.73
75471;HTU21D;64051;46.320;48.028;2022-10-17T05:26:39;8.37;69.61
75471;HTU21D;64051;46.320;48.028;2022-10-17T05:29:11;8.50;69.46
75471;HTU21D;64051;46.320;48.028;2022-10-17T05:31:41;8.53;69.73
75471;HTU21D;64051;46.320;48.028;2022-10-17T05:34:07;8.56;69.06
75471;HTU21D;64051;46.320;48.028;2022-10-17T05:36:34;8.60;69.08
75471;HTU21D;64051;46.320;48.028;2022-10-17T05:39:02;8.65;69.02
75471;HTU21D;64051;46.320;48.028;2022-10-17T05:41:29;8.71;68.91
75471;HTU21D;64051;46.320;48.028;2022-10-17T05:43:58;8.76;68.91
75471;HTU21D;64051;46.320;48.028;2022-10-17T05:46:36;8.80;68.87
75471;HTU21D;64051;46.320;48.028;2022-10-17T05:49:02;8.87;68.84
75471;HTU21D;64051;46.320;48.028;2022-10-17T05:51:37;8.95;68.78
75471;HTU21D;64051;46.320;48.028;2022-10-17T05:54:05;9.06;68.72
75471;HTU21D;64051;46.320;48.028;2022-10-17T05:56:33;9.17;68.75
75471;HTU21D;64051;46.320;48.028;2022-10-17T05:58:59;9.29;68.54
75471;HTU21D;64051;46.320;48.028;2022-10-17T06:01:43;9.41;68.33
75471;HTU21D;64051;46.320;48.028;2022-10-17T06:04:09;9.51;68.23
75471;HTU21D;64051;46.320;48.028;2022-10-17T06:06:37;9.65;68.08
75471;HTU21D;64051;46.320;48.028;2022-10-17T06:09:07;9.75;67.78
75471;HTU21D;64051;46.320;48.028;2022-10-17T06:11:37;9.84;67.74
75471;HTU21D;64051;46.320;48.028;2022-10-17T06:14:04;9.98;67.63
75471;HTU21D;64051;46.320;48.028;2022-10-17T06:16:30;10.09;67.30
75471;HTU21D;64051;46.320;48.028;2022-10-17T06:18:56;10.18;67.27
75471;HTU21D;64051;46.320;48.028;2022-10-17T06:21:25;10.31;66.98
75471;HTU21D;64051;46.320;48.028;2022-10-17T06:23:56;10.37;66.85
75471;HTU21D;64051;46.320;48.028;2022-10-17T06:26:31;10.43;66.88
75471;HTU21D;64051;46.320;48.028;2022-10-17T06:28:59;10.55;66.82
75471;HTU21D;64051;46.320;48.028;2022-10-17T06:31:30;10.70;66.73
75471;HTU21D;64051;46.320;48.028;2022-10-17T06:33:56;10.83;66.58
75471;HTU21D;64051;46.320;48.028;2022-10-17T06:36:22;11.00;66.39
75471;HTU21D;64051;46.320;48.028;2022-10-17T06:38:49;11.13;66.02
75471;HTU21D;64051;46.320;48.028;2022-10-17T06:41:29;11.29;65.97
75471;HTU21D;64051;46.320;48.028;2022-10-17T06:44:02;11.47;65.82
75471;HTU21D;64051;46.320;48.028;2022-10-17T06:47:12;11.67;65.43
75471;HTU21D;64051;46.320;48.028;2022-10-17T06:49:38;11.82;65.37
75471;HTU21D;64051;46.320;48.028;2022-10-17T06:52:27;12.00;65.07
75471;HTU21D;64051;46.320;48.028;2022-10-17T06:55:12;12.14;64.68
75471;HTU21D;64051;46.320;48.028;2022-10-17T06:58:00;12.25;64.47
75471;HTU21D;64051;46.320;48.028;2022-10-17T07:00:41;12.33;63.92
75471;HTU21D;64051;46.320;48.028;2022-10-17T07:03:09;12.35;63.72
75471;HTU21D;64051;46.320;48.028;2022-10-17T07:05:35;12.42;63.76
75471;HTU21D;64051;46.320;48.028;2022-10-17T07:08:03;12.55;63.59
75471;HTU21D;64051;46.320;48.028;2022-10-17T07:10:37;12.70;63.37
75471;HTU21D;64051;46.320;48.028;2022-10-17T07:13:05;12.84;63.17
75471;HTU21D;64051;46.320;48.028;2022-10-17T07:15:33;12.99;62.91
75471;HTU21D;64051;46.320;48.028;2022-10-17T07:17:59;13.10;62.53
75471;HTU21D;64051;46.320;48.028;2022-10-17T07:20:25;13.20;62.15
75471;HTU21D;64051;46.320;48.028;2022-10-17T07:22:50;13.26;61.84
75471;HTU21D;64051;46.320;48.028;2022-10-17T07:25:17;13.36;61.76
75471;HTU21D;64051;46.320;48.028;2022-10-17T07:27:51;13.50;61.66
75471;HTU21D;64051;46.320;48.028;2022-10-17T07:30:18;13.66;61.57
75471;HTU21D;64051;46.320;48.028;2022-10-17T07:33:10;13.83;61.22
75471;HTU21D;64051;46.320;48.028;2022-10-17T07:35:39;13.96;60.82
75471;HTU21D;64051;46.320;48.028;2022-10-17T07:38:08;14.08;60.36
75471;HTU21D;64051;46.320;48.028;2022-10-17T07:40:34;14.21;60.18
75471;HTU21D;64051;46.320;48.028;2022-10-17T07:43:00;14.28;59.43
75471;HTU21D;64051;46.320;48.028;2022-10-17T07:45:27;14.34;59.12
75471;HTU21D;64051;46.320;48.028;2022-10-17T07:48:00;14.37;58.95
75471;HTU21D;64051;46.320;48.028;2022-10-17T07:50:29;14.44;58.80
75471;HTU21D;64051;46.320;48.028;2022-10-17T07:52:57;14.53;58.45
75471;HTU21D;64051;46.320;48.028;2022-10-17T07:55:29;14.55;58.12
75471;HTU21D;64051;46.320;48.028;2022-10-17T07:57:58;14.59;58.15
75471;HTU21D;64051;46.320;48.028;2022-10-17T08:00:30;14.70;57.88
75471;HTU21D;64051;46.320;48.028;2022-10-17T08:02:56;14.71;57.39
75471;HTU21D;64051;46.320;48.028;2022-10-17T08:05:22;14.71;57.19
75471;HTU21D;64051;46.320;48.028;2022-10-17T08:07:48;14.78;57.19
75471;HTU21D;64051;46.320;48.028;2022-10-17T08:10:14;14.92;56.88
75471;HTU21D;64051;46.320;48.028;2022-10-17T08:12:41;14.99;56.53
75471;HTU21D;64051;46.320;48.028;2022-10-17T08:15:10;15.09;56.35
75471;HTU21D;64051;46.320;48.028;2022-10-17T08:17:37;15.16;56.28
75471;HTU21D;64051;46.320;48.028;2022-10-17T08:20:04;15.26;55.74
75471;HTU21D;64051;46.320;48.028;2022-10-17T08:22:32;15.29;55.15
75471;HTU21D;64051;46.320;48.028;2022-10-17T08:25:01;15.25;54.75
75471;HTU21D;64051;46.320;48.028;2022-10-17T08:27:27;15.25;54.68
75471;HTU21D;64051;46.320;48.028;2022-10-17T08:29:53;15.26;54.52
75471;HTU21D;64051;46.320;48.028;2022-10-17T08:32:24;15.31;54.24
75471;HTU21D;64051;46.320;48.028;2022-10-17T08:34:54;15.38;54.09
75471;HTU21D;64051;46.320;48.028;2022-10-17T08:37:21;15.42;53.75
75471;HTU21D;64051;46.320;48.028;2022-10-17T08:39:47;15.46;53.27
75471;HTU21D;64051;46.320;48.028;2022-10-17T08:48:04;15.59;52.65
75471;HTU21D;64051;46.320;48.028;2022-10-17T08:56:20;15.75;51.08
75471;HTU21D;64051;46.320;48.028;2022-10-17T08:58:48;15.74;51.56
75471;HTU21D;64051;46.320;48.028;2022-10-17T09:18:35;15.95;50.21
75471;HTU21D;64051;46.320;48.028;2022-10-17T09:23:51;16.10;50.43
75471;HTU21D;64051;46.320;48.028;2022-10-17T09:26:19;16.21;50.58
75471;HTU21D;64051;46.320;48.028;2022-10-17T09:28:55;16.34;50.16
75471;HTU21D;64051;46.320;48.028;2022-10-17T09:31:29;16.44;49.83
75471;HTU21D;64051;46.320;48.028;2022-10-17T09:33:59;16.52;49.66
75471;HTU21D;64051;46.320;48.028;2022-10-17T09:36:29;16.63;49.24
75471;HTU21D;64051;46.320;48.028;2022-10-17T09:38:59;16.72;49.13
75471;HTU21D;64051;46.320;48.028;2022-10-17T09:41:35;16.76;48.21
75471;HTU21D;64051;46.320;48.028;2022-10-17T09:47:12;16.64;46.11
75471;HTU21D;64051;46.320;48.028;2022-10-17T09:49:44;16.62;47.78
75471;HTU21D;64051;46.320;48.028;2022-10-17T09:52:17;16.67;48.05
75471;HTU21D;64051;46.320;48.028;2022-10-17T09:54:45;16.72;46.78
75471;HTU21D;64051;46.320;48.028;2022-10-17T09:57:15;16.74;48.25
75471;HTU21D;64051;46.320;48.028;2022-10-17T09:59:47;16.77;47.72
75471;HTU21D;64051;46.320;48.028;2022-10-17T10:02:22;16.78;47.72
75471;HTU21D;64051;46.320;48.028;2022-10-17T10:07:18;16.82;47.48
75471;HTU21D;64051;46.320;48.028;2022-10-17T10:09:46;16.90;47.31
75471;HTU21D;64051;46.320;48.028;2022-10-17T10:12:36;16.95;45.55
75471;HTU21D;64051;46.320;48.028;2022-10-17T10:15:33;16.96;45.30
75471;HTU21D;64051;46.320;48.028;2022-10-17T10:17:59;16.96;46.43
75471;HTU21D;64051;46.320;48.028;2022-10-17T10:20:34;16.99;45.78
75471;HTU21D;64051;46.320;48.028;2022-10-17T10:23:12;16.94;45.73
75471;HTU21D;64051;46.320;48.028;2022-10-17T10:28:37;16.85;45.89
75471;HTU21D;64051;46.320;48.028;2022-10-17T10:31:06;16.78;46.12
75471;HTU21D;64051;46.320;48.028;2022-10-17T10:33:35;16.67;45.89
75471;HTU21D;64051;46.320;48.028;2022-10-17T10:36:05;16.55;45.96
75471;HTU21D;64051;46.320;48.028;2022-10-17T10:38:33;16.48;46.09
75471;HTU21D;64051;46.320;48.028;2022-10-17T10:41:05;16.42;45.77
75471;HTU21D;64051;46.320;48.028;2022-10-17T10:43:44;16.37;46.13
75471;HTU21D;64051;46.320;48.028;2022-10-17T10:46:29;16.35;45.89
75471;HTU21D;64051;46.320;48.028;2022-10-17T10:48:55;16.26;45.66
75471;HTU21D;64051;46.320;48.028;2022-10-17T10:51:50;16.13;45.38
75471;HTU21D;64051;46.320;48.028;2022-10-17T10:54:22;16.02;46.31
75471;HTU21D;64051;46.320;48.028;2022-10-17T10:56:52;15.91;46.54
75471;HTU21D;64051;46.320;48.028;2022-10-17T10:59:19;15.86;46.56
75471;HTU21D;64051;46.320;48.028;2022-10-17T11:02:20;15.83;45.88
75471;HTU21D;64051;46.320;48.028;2022-10-17T11:04:45;15.77;46.64
75471;HTU21D;64051;46.320;48.028;2022-10-17T11:07:29;15.76;46.21
75471;HTU21D;64051;46.320;48.028;2022-10-17T11:12:34;15.81;46.31
75471;HTU21D;64051;46.320;48.028;2022-10-17T11:20:47;15.75;45.71
75471;HTU21D;64051;46.320;48.028;2022-10-17T11:23:27;15.71;46.28
75471;HTU21D;64051;46.320;48.028;2022-10-17T11:26:01;15.66;46.37
75471;HTU21D;64051;46.320;48.028;2022-10-17T11:28:31;15.63;46.32
75471;HTU21D;64051;46.320;48.028;2022-10-17T11:31:08;15.60;45.35
75471;HTU21D;64051;46.320;48.028;2022-10-17T11:33:49;15.59;46.20
75471;HTU21D;64051;46.320;48.028;2022-10-17T11:36:19;15.57;46.54
75471;HTU21D;64051;46.320;48.028;2022-10-17T11:38:51;15.58;46.31
75471;HTU21D;64051;46.320;48.028;2022-10-17T11:46:33;15.51;46.38
75471;HTU21D;64051;46.320;48.028;2022-10-17T11:49:15;15.47;46.19
75471;HTU21D;64051;46.320;48.028;2022-10-17T11:51:46;15.45;46.47
75471;HTU21D;64051;46.320;48.028;2022-10-17T12:07:58;15.13;46.16
75471;HTU21D;64051;46.320;48.028;2022-10-17T12:10:33;15.07;47.15
75471;HTU21D;64051;46.320;48.028;2022-10-17T12:14:08;15.01;46.80
75471;HTU21D;64051;46.320;48.028;2022-10-17T12:21:26;14.85;47.16
75471;HTU21D;64051;46.320;48.028;2022-10-17T12:23:53;14.83;47.06
75471;HTU21D;64051;46.320;48.028;2022-10-17T12:26:27;14.80;46.89
75471;HTU21D;64051;46.320;48.028;2022-10-17T12:28:58;14.74;47.09
75471;HTU21D;64051;46.320;48.028;2022-10-17T12:31:25;14.71;47.09
75471;HTU21D;64051;46.320;48.028;2022-10-17T12:33:55;14.67;47.15
75471;HTU21D;64051;46.320;48.028;2022-10-17T12:46:48;14.50;47.53
75471;HTU21D;64051;46.320;48.028;2022-10-17T12:49:37;14.49;47.36
75471;HTU21D;64051;46.320;48.028;2022-10-17T13:05:54;14.43;47.89
75471;HTU21D;64051;46.320;48.028;2022-10-17T13:08:28;14.44;47.99
75471;HTU21D;64051;46.320;48.028;2022-10-17T13:10:56;14.44;48.04
75471;HTU21D;64051;46.320;48.028;2022-10-17T13:16:00;14.41;48.07
75471;HTU21D;64051;46.320;48.028;2022-10-17T13:18:35;14.39;48.13
75471;HTU21D;64051;46.320;48.028;2022-10-17T13:21:13;14.37;48.04
75471;HTU21D;64051;46.320;48.028;2022-10-17T13:23:48;14.33;48.22
75471;HTU21D;64051;46.320;48.028;2022-10-17T13:26:30;14.32;48.24
75471;HTU21D;64051;46.320;48.028;2022-10-17T13:29:09;14.25;48.31
75471;HTU21D;64051;46.320;48.028;2022-10-17T13:31:43;14.19;48.43
75471;HTU21D;64051;46.320;48.028;2022-10-17T13:34:23;14.17;48.34
75471;HTU21D;64051;46.320;48.028;2022-10-17T13:37:04;14.11;48.49
75471;HTU21D;64051;46.320;48.028;2022-10-17T13:39:41;14.06;48.57
75471;HTU21D;64051;46.320;48.028;2022-10-17T13:42:23;14.00;48.60
75471;HTU21D;64051;46.320;48.028;2022-10-17T13:44:49;13.94;48.80
75471;HTU21D;64051;46.320;48.028;2022-10-17T13:47:25;13.89;48.85
75471;HTU21D;64051;46.320;48.028;2022-10-17T13:49:52;13.83;48.92
75471;HTU21D;64051;46.320;48.028;2022-10-17T13:52:29;13.78;49.04
75471;HTU21D;64051;46.320;48.028;2022-10-17T13:55:20;13.71;49.04
75471;HTU21D;64051;46.320;48.028;2022-10-17T13:57:46;13.60;49.24
75471;HTU21D;64051;46.320;48.028;2022-10-17T14:00:20;13.50;49.41
75471;HTU21D;64051;46.320;48.028;2022-10-17T14:02:47;13.39;49.60
75471;HTU21D;64051;46.320;48.028;2022-10-17T14:05:16;13.33;49.82
75471;HTU21D;64051;46.320;48.028;2022-10-17T14:10:35;13.18;50.19
75471;HTU21D;64051;46.320;48.028;2022-10-17T14:13:03;13.10;50.34
75471;HTU21D;64051;46.320;48.028;2022-10-17T14:15:41;13.02;50.49
75471;HTU21D;64051;46.320;48.028;2022-10-17T14:18:18;12.93;50.64
75471;HTU21D;64051;46.320;48.028;2022-10-17T14:20:57;12.85;50.82
75471;HTU21D;64051;46.320;48.028;2022-10-17T14:23:41;12.81;51.03
75471;HTU21D;64051;46.320;48.028;2022-10-17T14:26:14;12.74;51.15
75471;HTU21D;64051;46.320;48.028;2022-10-17T14:28:44;12.65;51.25
75471;HTU21D;64051;46.320;48.028;2022-10-17T14:31:25;12.59;51.40
75471;HTU21D;64051;46.320;48.028;2022-10-17T14:33:53;12.50;51.51
75471;HTU21D;64051;46.320;48.028;2022-10-17T14:36:29;12.42;51.72
75471;HTU21D;64051;46.320;48.028;2022-10-17T14:39:00;12.32;51.79
75471;HTU21D;64051;46.320;48.028;2022-10-17T14:41:29;12.25;51.95
75471;HTU21D;64051;46.320;48.028;2022-10-17T14:44:07;12.15;52.17
75471;HTU21D;64051;46.320;48.028;2022-10-17T14:46:55;12.04;52.40
75471;HTU21D;64051;46.320;48.028;2022-10-17T14:49:34;11.96;52.68
75471;HTU21D;64051;46.320;48.028;2022-10-17T14:54:45;11.79;53.04
75471;HTU21D;64051;46.320;48.028;2022-10-17T15:00:05;11.63;53.32
75471;HTU21D;64051;46.320;48.028;2022-10-17T15:02:44;11.55;53.59
75471;HTU21D;64051;46.320;48.028;2022-10-17T15:05:10;11.49;53.75
75471;HTU21D;64051;46.320;48.028;2022-10-17T15:07:36;11.41;53.90
75471;HTU21D;64051;46.320;48.028;2022-10-17T15:10:41;11.34;54.04
75471;HTU21D;64051;46.320;48.028;2022-10-17T15:13:11;11.27;54.21
75471;HTU21D;64051;46.320;48.028;2022-10-17T15:15:41;11.20;54.46
75471;HTU21D;64051;46.320;48.028;2022-10-17T15:18:11;11.17;54.62
75471;HTU21D;64051;46.320;48.028;2022-10-17T15:20:49;11.15;54.78
75471;HTU21D;64051;46.320;48.028;2022-10-17T15:23:30;11.11;54.83
75471;HTU21D;64051;46.320;48.028;2022-10-17T15:26:00;11.08;54.96
75471;HTU21D;64051;46.320;48.028;2022-10-17T15:28:26;11.07;55.12
75471;HTU21D;64051;46.320;48.028;2022-10-17T15:30:58;11.04;55.23
75471;HTU21D;64051;46.320;48.028;2022-10-17T15:33:33;11.03;55.36
75471;HTU21D;64051;46.320;48.028;2022-10-17T15:36:25;10.99;55.50
75471;HTU21D;64051;46.320;48.028;2022-10-17T15:38:54;10.95;55.48
75471;HTU21D;64051;46.320;48.028;2022-10-17T15:41:30;10.90;55.68
75471;HTU21D;64051;46.320;48.028;2022-10-17T15:44:01;10.84;55.78
75471;HTU21D;64051;46.320;48.028;2022-10-17T15:46:32;10.83;55.91
75471;HTU21D;64051;46.320;48.028;2022-10-17T15:49:06;10.80;56.03
75471;HTU21D;64051;46.320;48.028;2022-10-17T15:51:37;10.75;56.10
75471;HTU21D;64051;46.320;48.028;2022-10-17T15:54:08;10.68;56.23
75471;HTU21D;64051;46.320;48.028;2022-10-17T15:56:51;10.60;56.42
75471;HTU21D;64051;46.320;48.028;2022-10-17T15:59:34;10.51;56.61
75471;HTU21D;64051;46.320;48.028;2022-10-17T16:02:12;10.39;56.79
75471;HTU21D;64051;46.320;48.028;2022-10-17T16:04:48;10.27;57.00
75471;HTU21D;64051;46.320;48.028;2022-10-17T16:07:21;10.16;57.27
75471;HTU21D;64051;46.320;48.028;2022-10-17T16:09:59;10.09;57.53
75471;HTU21D;64051;46.320;48.028;2022-10-17T16:12:34;9.99;57.80
75471;HTU21D;64051;46.320;48.028;2022-10-17T16:15:21;9.92;57.87
75471;HTU21D;64051;46.320;48.028;2022-10-17T16:17:51;9.84;57.90
75471;HTU21D;64051;46.320;48.028;2022-10-17T16:20:25;9.79;58.07
75471;HTU21D;64051;46.320;48.028;2022-10-17T16:22:55;9.74;58.22
75471;HTU21D;64051;46.320;48.028;2022-10-17T16:25:35;9.70;58.31
75471;HTU21D;64051;46.320;48.028;2022-10-17T16:28:20;9.61;58.29
75471;HTU21D;64051;46.320;48.028;2022-10-17T16:30:53;9.55;58.58
75471;HTU21D;64051;46.320;48.028;2022-10-17T16:33:22;9.50;58.70
75471;HTU21D;64051;46.320;48.028;2022-10-17T16:36:14;9.45;58.93
75471;HTU21D;64051;46.320;48.028;2022-10-17T16:38:56;9.35;58.89
75471;HTU21D;64051;46.320;48.028;2022-10-17T16:41:30;9.26;59.12
75471;HTU21D;64051;46.320;48.028;2022-10-17T16:44:23;9.19;59.28
75471;HTU21D;64051;46.320;48.028;2022-10-17T16:47:18;9.12;59.38
75471;HTU21D;64051;46.320;48.028;2022-10-17T16:49:45;9.02;59.39
75471;HTU21D;64051;46.320;48.028;2022-10-17T17:03:29;8.67;59.79
75471;HTU21D;64051;46.320;48.028;2022-10-17T17:06:35;8.64;60.15
75471;HTU21D;64051;46.320;48.028;2022-10-17T17:09:32;8.60;60.25
75471;HTU21D;64051;46.320;48.028;2022-10-17T17:22:18;8.44;60.48
75471;HTU21D;64051;46.320;48.028;2022-10-17T17:24:59;8.38;60.49
75471;HTU21D;64051;46.320;48.028;2022-10-17T17:27:28;8.34;60.75
75471;HTU21D;64051;46.320;48.028;2022-10-17T17:29:54;8.31;60.76
75471;HTU21D;64051;46.320;48.028;2022-10-17T17:32:27;8.27;60.89
75471;HTU21D;64051;46.320;48.028;2022-10-17T17:35:07;8.22;61.30
75471;HTU21D;64051;46.320;48.028;2022-10-17T17:37:36;8.17;61.06
75471;HTU21D;64051;46.320;48.028;2022-10-17T17:40:02;8.11;61.23
75471;HTU21D;64051;46.320;48.028;2022-10-17T17:42:30;8.06;61.37
75471;HTU21D;64051;46.320;48.028;2022-10-17T17:45:03;8.04;61.57
75471;HTU21D;64051;46.320;48.028;2022-10-17T17:47:32;7.99;61.58
75471;HTU21D;64051;46.320;48.028;2022-10-17T17:50:01;7.93;61.62
75471;HTU21D;64051;46.320;48.028;2022-10-17T17:52:28;7.87;61.76
75471;HTU21D;64051;46.320;48.028;2022-10-17T17:54:57;7.83;61.93
75471;HTU21D;64051;46.320;48.028;2022-10-17T17:57:34;7.74;61.96
75471;HTU21D;64051;46.320;48.028;2022-10-17T18:00:04;7.68;62.08
75471;HTU21D;64051;46.320;48.028;2022-10-17T18:02:31;7.64;62.21
75471;HTU21D;64051;46.320;48.028;2022-10-17T18:05:03;7.59;62.35
75471;HTU21D;64051;46.320;48.028;2022-10-17T18:07:34;7.54;62.50
75471;HTU21D;64051;46.320;48.028;2022-10-17T18:10:07;7.52;62.75
75471;HTU21D;64051;46.320;48.028;2022-10-17T18:12:47;7.50;62.98